KGRI

Central Nebraska Regional Airport

Grand Island, Nebraska, USA
METAR KGRI 151253Z 23009KT 10SM CLR M04/M06 A3006 RMK AO2 SLP204 T10391056
Observed Flight Rules
Dec-15 @ 12:53 UTC (an hour ago) Visual Flight Rules
Wind Visibility Clouds
230° at 9 knots 10 miles
  • Clear skies
Temperatures Readings
Current -4°C / 25°F
Dewpoint -6°C / 21°F
Humidity 86%
Altimeter 30.06" Hg
Pressure 1020.4 hPa
Elevation 561
METAR KGRI 151253Z 23009KT 10SM CLR M04/M06 A3006 RMK AO2 SLP204 T10391056
Observed Flight Rules
Dec-15 @ 12:53 UTC
(an hour ago)
VFR
Wind Visibility
230° at 9 knots 10 miles
Clouds
  • Clear skies
Temperature Dewpoint
-4°C / 25°F -6°C / 21°F
Humidity Altimeter Pressure
86% 30.06" Hg 1020.4 hPa